• Join FlightAware (Why Join?)
  • Login
  • US Flag 
11:07PM EDT


 

Airport Tracker/Info


-or-


 

Live Flight TrackerFlight Track Log ✈ UAL3732 ✈ 27-Oct-2013 ✈ KBTV - KORD

Flight Track Log - Related Links

Times and Time Zones

All times are in EDT time to prevent confusion due to time zone crossing. See the UAL3732 flight status page for this flight to view local times or setup timezone preferences in your user account.

Time Position Orientation Groundspeed Altitude Reporting Facility
EDT Latitude Longitude Course Direction KTS MPH feet Rate Location/Type
06:14AM 44.4284 -73.5833 259° West  Level Estimated
06:14AM 44.3814 -73.2225 257° West 229 264 5,800  Level Boston Center
06:15AM 44.4136 -73.7265 255° West  Level Estimated
06:15AM 44.3683 -73.3147 259° West 241 277 8,300  Level Boston Center
06:16AM 44.3781 -73.8623 250° West  Level FlightAware Approximate
06:16AM 44.3533 -73.4183 259° West 252 290 11,000  Level Boston Center
06:17AM 44.3424 -73.9980 250° West  Level FlightAware Approximate
06:17AM 44.3389 -73.5219 259° West 276 318 12,700  Level Boston Center
06:18AM 44.3271 -74.1440 258° West  Level Estimated
06:18AM 44.3219 -73.6442 259° West 322 371 14,300  Level Boston Center
06:19AM 44.3117 -74.2899 257° West  Level Estimated
06:19AM 44.3047 -73.7622 259° West 340 391 16,200  Level Boston Center
06:20AM 44.2850 -73.8983 259° West 358 412 18,300 1,920 Climbing Boston Center
06:21AM 44.2647 -74.0350 258° West 360 414 20,100 1,620 Climbing Boston Center
06:22AM 44.2450 -74.1725 259° West 368 423 21,500 1,560 Climbing Boston Center
06:23AM 44.2231 -74.3172 258° West 379 436 23,200 1,560 Climbing Boston Center
06:24AM 44.1972 -74.4931 258° West 386 444 24,700 1,320 Climbing Boston Center
06:25AM 44.1758 -74.6431 259° West 394 453 25,900 1,080 Climbing Boston Center
06:26AM 44.1531 -74.7956 258° West 402 463 26,900 960 Climbing Boston Center
06:27AM 44.1292 -74.9506 258° West 410 472 27,900 960 Climbing Boston Center
06:28AM 44.1047 -75.1033 257° West 409 471 28,900 960 Climbing Boston Center
06:29AM 44.0797 -75.2608 258° West 420 483 29,900 960 Climbing Boston Center
06:30AM 44.0547 -75.4172 258° West 418 481 30,900 960 Climbing Boston Center
06:31AM 44.0300 -75.5728 258° West 417 480 31,900 960 Climbing Boston Center
06:32AM 44.0058 -75.7272 258° West 413 475 32,900 960 Climbing Boston Center
06:33AM 43.9814 -75.8800 258° West 410 472 33,900 960 Climbing Boston Center
06:34AM 43.9567 -76.0306 257° West 405 466 34,900 960 Climbing Boston Center
06:35AM 43.9408 -76.1794 262° West 395 455 35,900 540 Climbing Boston Center
06:36AM 43.9269 -76.3314 263° West 400 460 36,000  Climbing Boston Center
06:37AM 43.9133 -76.4894 263° West 414 476 36,000  Level Boston Center
06:39AM 43.8833 -76.7833 262° West 420 483 36,000  Level Toronto Center
06:40AM 43.8667 -76.9333 261° West 410 472 36,000  Level Toronto Center
06:41AM 43.8333 -77.0833 253° West 410 472 36,000  Level Toronto Center
06:42AM 43.8167 -77.2500 262° West 410 472 36,000  Level Toronto Center
06:43AM 43.8167 -77.4167 270° West 410 472 36,000  Level Toronto Center
06:44AM 43.8000 -77.5500 260° West 420 483 36,000  Level Toronto Center
06:45AM 43.7833 -77.7333 263° West 420 483 36,000  Level Toronto Center
06:46AM 43.7667 -77.8833 261° West 420 483 36,000  Level Toronto Center
06:47AM 43.7500 -78.0333 261° West 410 472 36,000  Level Toronto Center
06:48AM 43.7333 -78.2000 262° West 410 472 36,000  Level Toronto Center
06:49AM 43.7000 -78.3667 255° West 410 472 36,000  Level Toronto Center
06:50AM 43.7000 -78.5333 270° West 410 472 36,000  Level Toronto Center
06:51AM 43.6833 -78.6667 260° West 410 472 36,000  Level Toronto Center
06:52AM 43.6667 -78.8333 262° West 410 472 36,000  Level Toronto Center
06:53AM 43.6500 -78.9833 261° West 410 472 36,000  Level Toronto Center
06:54AM 43.6333 -79.1500 262° West 410 472 36,000  Level Toronto Center
06:55AM 43.6333 -79.2833 270° West 410 472 36,000  Level Toronto Center
06:56AM 43.6167 -79.4500 262° West 410 472 36,000  Level Toronto Center
06:57AM 43.6000 -79.6167 262° West 400 460 36,000  Level Toronto Center
06:58AM 43.5833 -79.7667 261° West 400 460 36,000  Level Toronto Center
06:59AM 43.5667 -79.9167 261° West 410 472 36,000  Level Toronto Center
07:00AM 43.5333 -80.0667 253° West 410 472 36,000  Level Toronto Center
07:01AM 43.5167 -80.2333 262° West 410 472 36,000  Level Toronto Center
07:02AM 43.5000 -80.3833 261° West 410 472 36,000  Level Toronto Center
07:03AM 43.4833 -80.5333 261° West 410 472 36,000  Level Toronto Center
07:04AM 43.4500 -80.6833 253° West 410 472 36,000  Level Toronto Center
07:05AM 43.4167 -80.8500 255° West 410 472 36,000  Level Toronto Center
07:06AM 43.4000 -80.9833 260° West 410 472 36,000  Level Toronto Center
07:07AM 43.3667 -81.1500 255° West 410 472 36,000  Level Toronto Center
07:08AM 43.3500 -81.3000 261° West 410 472 36,000  Level Toronto Center
07:09AM 43.3333 -81.4500 261° West 410 472 36,000  Level Toronto Center
07:10AM 43.3167 -81.6333 263° West 410 472 36,000  Level Toronto Center
07:11AM 43.2833 -81.7667 251° West 410 472 36,000  Level Toronto Center
07:12AM 43.2500 -81.9167 253° West 410 472 36,000  Level Toronto Center
07:13AM 43.2333 -82.0833 262° West 410 472 36,000  Level Toronto Center
07:14AM 43.2000 -82.2167 251° West 420 483 36,000  Level Toronto Center
07:15AM 43.1950 -82.3894 268° West 418 481 36,000 -420 Level Cleveland Center
07:16AM 43.1686 -82.5731 259° West 414 476 35,200 -1,140 Descending Cleveland Center
07:17AM 43.1478 -82.7286 260° West 417 480 33,700 -1,500 Descending Cleveland Center
07:18AM 43.1264 -82.8828 259° West 416 479 32,200 -840 Descending Cleveland Center
07:19AM 43.1061 -83.0367 260° West 413 475 32,000 -120 Descending Cleveland Center
07:20AM 43.0847 -83.1889 259° West 411 473 32,000  Level Cleveland Center
07:21AM 43.0644 -83.3408 260° West 409 471 32,000  Level Cleveland Center
07:22AM 43.0436 -83.4933 259° West 411 473 32,000  Level Cleveland Center
07:23AM 43.0219 -83.6458 259° West 413 475 32,000  Level Cleveland Center
07:24AM 42.9986 -83.7992 258° West 415 478 32,000  Level Cleveland Center
07:25AM 42.9767 -83.9528 259° West 415 478 32,000  Level Cleveland Center
07:26AM 42.9497 -84.1372 259° West 415 478 32,000  Level Cleveland Center
07:27AM 42.9283 -84.2903 259° West 414 476 32,000  Level Cleveland Center
07:28AM 42.9083 -84.4261 259° West 417 480 32,000  Level Cleveland Center
07:29AM 42.8939 -84.5194 258° West 417 480 32,000  Level Chicago Center
07:30AM 42.8756 -84.6747 261° West 415 478 32,000  Level Chicago Center
07:31AM 42.8589 -84.8289 262° West 414 476 32,000  Level Chicago Center
07:32AM 42.8392 -85.0147 262° West 413 475 32,000 -60 Level Chicago Center
07:33AM 42.8228 -85.1714 262° West 416 479 31,900 -840 Descending Chicago Center
07:34AM 42.8053 -85.3283 261° West 421 484 30,300 -1,680 Descending Chicago Center
07:35AM 42.7881 -85.4856 262° West 419 482 28,600 -1,740 Descending Chicago Center
07:36AM 42.7603 -85.6397 256° West 418 481 26,900 -1,680 Descending Chicago Center
07:37AM 42.7339 -85.7856 256° West 404 465 25,200 -1,680 Descending Chicago Center
07:38AM 42.7114 -85.9131 257° West 359 413 23,500 -1,620 Descending Chicago Center
07:39AM 42.6883 -86.0394 256° West 344 396 22,000 -1,500 Descending Chicago Center
07:40AM 42.6658 -86.1686 257° West 348 400 20,500 -1,500 Descending Chicago Center
07:41AM 42.6428 -86.2922 256° West 340 391 19,000 -1,440 Descending Chicago Center
07:42AM 42.6200 -86.4075 255° West 319 367 17,600 -1,440 Descending Chicago Center
07:43AM 42.5983 -86.5228 256° West 316 364 16,100 -1,560 Descending Chicago Center
07:44AM 42.5769 -86.6372 256° West 312 359 14,500 -1,440 Descending Chicago Center
07:45AM 42.5553 -86.7489 255° West 308 354 13,200 -1,200 Descending Chicago Center
07:46AM 42.5258 -86.8575 250° West 307 353 12,200 -1,020 Descending Chicago Center
07:47AM 42.4958 -86.9658 249° West 308 354 11,200 -1,020 Descending Chicago Center
07:48AM 42.4656 -87.0719 249° West 304 350 10,200 -780 Descending Chicago Center
07:49AM 42.4378 -87.1739 250° West 291 335 9,700 -600 Descending Chicago Center
07:50AM 42.4125 -87.2661 250° West 266 306 9,000 -540 Descending Chicago Center
07:51AM 42.3878 -87.3553 249° West 256 295 8,700 -540 Descending Chicago Center
07:52AM 42.3600 -87.4581 250° West 261 300 8,000 -900 Descending Chicago Center
07:53AM 42.2975 -87.5078 210° Southwest 283 326 6,900 -1,020 Descending Chicago Center
07:54AM 42.2214 -87.5303 192° South 281 323 6,000 -1,080 Descending Chicago Center
07:55AM 42.1494 -87.5489 191° South 266 306 4,800 -1,020 Descending Chicago Center
07:56AM 42.0911 -87.5939 210° Southwest 244 281 4,000 -480 Descending Chicago Center
07:57AM 42.0333 -87.6500 216° Southwest 205 236 3,900 -480 Descending Chicago TRACON
07:58AM 42.0000 -87.7167 236° Southwest 192 221 3,100 -660 Descending Chicago TRACON
07:59AM 42.0000 -87.7833 270° West 156 180 2,600 -600 Descending Chicago TRACON
08:00AM 42.0000 -87.8167 270° West 119 137 1,900 -720 Descending Chicago TRACON
08:01AM 42.0000 -87.8667 270° West 122 140 1,200 -720 Descending Chicago TRACON